Ingenio Santa Ana, Argentina
Current Conditions -  °F | °C
As of 3:00 AM on Sunday 26 Oct 2014 (Local Time) from SANT Reporting Station
Clear Clear  
Wind Chill: 26°   Ceiling: Unl
Heat Index: 26°   Visibility: 5mi
Dew Point: 10°   Wind: 12mph
Humidity: 36%   Direction: 360°N
Pressure: 29.77"   Gusts: NA
Location:  27.47°S, 65.68°W
Report Text: SANT 260600Z 36010KT 8000 NSC 26/10 Q1008
Loading
Personal Weather Stations






























Interactive Weather Map
Tropical Storm Tracking
New forecast layout! Learn more

10-Day Weather Forecast

Advertisements
Track Severe Weather on mobile